sensor_id;sensor_type;location;lat;lon;timestamp;pressure;altitude;pressure_sealevel;temperature;humidity
6134;BME280;3098;42.678;23.364;2022-09-03T00:02:20;94873.03;;;16.24;100.00
6134;BME280;3098;42.678;23.364;2022-09-03T00:04:56;94876.75;;;16.20;100.00
6134;BME280;3098;42.678;23.364;2022-09-03T00:07:33;94873.53;;;16.14;100.00
6134;BME280;3098;42.678;23.364;2022-09-03T00:10:04;94870.88;;;16.14;100.00
6134;BME280;3098;42.678;23.364;2022-09-03T00:12:38;94884.78;;;16.20;100.00
6134;BME280;3098;42.678;23.364;2022-09-03T00:15:09;94878.28;;;16.21;100.00
6134;BME280;3098;42.678;23.364;2022-09-03T00:17:40;94888.91;;;16.17;100.00
6134;BME280;3098;42.678;23.364;2022-09-03T00:20:12;94873.72;;;16.21;100.00
6134;BME280;3098;42.678;23.364;2022-09-03T00:22:45;94881.59;;;16.30;100.00
6134;BME280;3098;42.678;23.364;2022-09-03T00:25:15;94874.41;;;16.18;100.00
6134;BME280;3098;42.678;23.364;2022-09-03T00:27:44;94851.00;;;15.99;100.00
6134;BME280;3098;42.678;23.364;2022-09-03T00:30:16;94891.91;;;16.16;100.00
6134;BME280;3098;42.678;23.364;2022-09-03T00:32:46;94882.09;;;16.20;100.00
6134;BME280;3098;42.678;23.364;2022-09-03T00:35:17;94887.34;;;16.16;100.00
6134;BME280;3098;42.678;23.364;2022-09-03T00:37:50;94876.53;;;16.13;100.00
6134;BME280;3098;42.678;23.364;2022-09-03T00:40:38;94882.16;;;16.07;100.00
6134;BME280;3098;42.678;23.364;2022-09-03T00:43:19;94881.13;;;16.12;100.00
6134;BME280;3098;42.678;23.364;2022-09-03T00:45:55;94878.13;;;16.14;100.00
6134;BME280;3098;42.678;23.364;2022-09-03T00:48:26;94874.06;;;16.20;100.00
6134;BME280;3098;42.678;23.364;2022-09-03T00:51:12;94877.53;;;16.20;100.00
6134;BME280;3098;42.678;23.364;2022-09-03T00:53:52;94879.06;;;16.21;100.00
6134;BME280;3098;42.678;23.364;2022-09-03T00:56:29;94844.69;;;15.92;100.00
6134;BME280;3098;42.678;23.364;2022-09-03T00:59:12;94885.72;;;16.12;100.00
6134;BME280;3098;42.678;23.364;2022-09-03T01:01:48;94881.38;;;16.07;100.00
6134;BME280;3098;42.678;23.364;2022-09-03T01:04:30;94880.50;;;16.03;100.00
6134;BME280;3098;42.678;23.364;2022-09-03T01:07:06;94851.72;;;15.84;100.00
6134;BME280;3098;42.678;23.364;2022-09-03T01:09:44;94863.94;;;15.97;100.00
6134;BME280;3098;42.678;23.364;2022-09-03T01:12:21;94863.25;;;16.00;100.00
6134;BME280;3098;42.678;23.364;2022-09-03T01:14:59;94872.28;;;15.96;100.00
6134;BME280;3098;42.678;23.364;2022-09-03T01:17:39;94867.88;;;15.88;100.00
6134;BME280;3098;42.678;23.364;2022-09-03T01:20:45;94880.75;;;15.98;100.00
6134;BME280;3098;42.678;23.364;2022-09-03T01:26:42;94863.00;;;16.05;100.00
6134;BME280;3098;42.678;23.364;2022-09-03T01:29:21;94882.31;;;15.99;100.00
6134;BME280;3098;42.678;23.364;2022-09-03T01:31:59;94873.66;;;15.90;100.00
6134;BME280;3098;42.678;23.364;2022-09-03T01:34:37;94895.78;;;16.02;100.00
6134;BME280;3098;42.678;23.364;2022-09-03T01:37:13;94897.50;;;15.95;100.00
6134;BME280;3098;42.678;23.364;2022-09-03T01:39:52;94880.06;;;15.73;100.00
6134;BME280;3098;42.678;23.364;2022-09-03T01:42:28;94910.66;;;15.88;100.00
6134;BME280;3098;42.678;23.364;2022-09-03T01:48:14;94900.53;;;15.81;100.00
6134;BME280;3098;42.678;23.364;2022-09-03T01:50:49;94900.78;;;15.76;100.00
6134;BME280;3098;42.678;23.364;2022-09-03T01:53:35;94874.19;;;15.68;100.00
6134;BME280;3098;42.678;23.364;2022-09-03T01:56:19;94827.81;;;15.36;100.00
6134;BME280;3098;42.678;23.364;2022-09-03T01:58:55;94898.13;;;15.76;100.00
6134;BME280;3098;42.678;23.364;2022-09-03T02:01:32;94892.44;;;15.78;100.00
6134;BME280;3098;42.678;23.364;2022-09-03T02:04:13;94892.44;;;15.78;100.00
6134;BME280;3098;42.678;23.364;2022-09-03T02:06:42;94896.50;;;15.87;100.00
6134;BME280;3098;42.678;23.364;2022-09-03T02:09:12;94889.28;;;15.88;100.00
6134;BME280;3098;42.678;23.364;2022-09-03T02:11:40;94898.84;;;15.89;100.00
6134;BME280;3098;42.678;23.364;2022-09-03T02:14:08;94871.09;;;15.66;100.00
6134;BME280;3098;42.678;23.364;2022-09-03T02:16:37;94887.94;;;15.82;100.00
6134;BME280;3098;42.678;23.364;2022-09-03T02:19:10;94916.22;;;15.95;100.00
6134;BME280;3098;42.678;23.364;2022-09-03T02:21:41;94918.66;;;16.00;100.00
6134;BME280;3098;42.678;23.364;2022-09-03T02:24:11;94900.31;;;15.86;100.00
6134;BME280;3098;42.678;23.364;2022-09-03T02:26:38;94824.34;;;15.35;100.00
6134;BME280;3098;42.678;23.364;2022-09-03T02:29:05;94910.31;;;15.89;100.00
6134;BME280;3098;42.678;23.364;2022-09-03T02:31:32;94908.78;;;15.88;100.00
6134;BME280;3098;42.678;23.364;2022-09-03T02:34:00;94803.50;;;15.13;100.00
6134;BME280;3098;42.678;23.364;2022-09-03T02:36:30;94918.69;;;15.88;100.00
6134;BME280;3098;42.678;23.364;2022-09-03T02:38:59;94880.56;;;15.63;100.00
6134;BME280;3098;42.678;23.364;2022-09-03T02:41:26;94832.84;;;15.37;100.00
6134;BME280;3098;42.678;23.364;2022-09-03T02:43:57;94910.78;;;15.91;100.00
6134;BME280;3098;42.678;23.364;2022-09-03T02:46:31;94916.78;;;15.88;100.00
6134;BME280;3098;42.678;23.364;2022-09-03T02:49:00;94912.91;;;15.86;100.00
6134;BME280;3098;42.678;23.364;2022-09-03T02:51:31;94903.47;;;15.76;100.00
6134;BME280;3098;42.678;23.364;2022-09-03T02:53:58;94898.66;;;15.82;100.00
6134;BME280;3098;42.678;23.364;2022-09-03T02:56:25;94926.34;;;15.89;100.00
6134;BME280;3098;42.678;23.364;2022-09-03T02:58:54;94927.81;;;15.87;100.00
6134;BME280;3098;42.678;23.364;2022-09-03T03:01:23;94925.75;;;15.80;100.00
6134;BME280;3098;42.678;23.364;2022-09-03T03:03:50;94920.03;;;15.82;100.00
6134;BME280;3098;42.678;23.364;2022-09-03T03:06:19;94926.19;;;15.82;100.00
6134;BME280;3098;42.678;23.364;2022-09-03T03:08:46;94901.81;;;15.72;100.00
6134;BME280;3098;42.678;23.364;2022-09-03T03:11:13;94926.47;;;15.93;100.00
6134;BME280;3098;42.678;23.364;2022-09-03T03:13:43;94923.94;;;15.84;100.00
6134;BME280;3098;42.678;23.364;2022-09-03T03:16:12;94919.94;;;15.78;100.00
6134;BME280;3098;42.678;23.364;2022-09-03T03:18:39;94901.84;;;15.60;100.00
6134;BME280;3098;42.678;23.364;2022-09-03T03:21:08;94918.44;;;15.65;100.00
6134;BME280;3098;42.678;23.364;2022-09-03T03:23:38;94889.72;;;15.50;100.00
6134;BME280;3098;42.678;23.364;2022-09-03T03:26:07;94907.16;;;15.72;100.00
6134;BME280;3098;42.678;23.364;2022-09-03T03:28:35;94917.06;;;15.71;100.00
6134;BME280;3098;42.678;23.364;2022-09-03T03:31:05;94901.97;;;15.63;100.00
6134;BME280;3098;42.678;23.364;2022-09-03T03:33:33;94860.38;;;15.26;100.00
6134;BME280;3098;42.678;23.364;2022-09-03T03:36:04;94921.22;;;15.69;100.00
6134;BME280;3098;42.678;23.364;2022-09-03T03:38:31;94913.72;;;15.74;100.00
6134;BME280;3098;42.678;23.364;2022-09-03T03:41:06;94886.13;;;15.58;100.00
6134;BME280;3098;42.678;23.364;2022-09-03T03:43:33;94923.63;;;15.74;100.00
6134;BME280;3098;42.678;23.364;2022-09-03T03:46:00;94915.97;;;15.72;100.00
6134;BME280;3098;42.678;23.364;2022-09-03T03:48:27;94924.06;;;15.76;100.00
6134;BME280;3098;42.678;23.364;2022-09-03T03:50:54;94906.03;;;15.73;100.00
6134;BME280;3098;42.678;23.364;2022-09-03T03:53:21;94928.09;;;15.70;100.00
6134;BME280;3098;42.678;23.364;2022-09-03T03:55:59;94923.75;;;15.77;100.00
6134;BME280;3098;42.678;23.364;2022-09-03T03:58:27;94920.47;;;15.84;100.00
6134;BME280;3098;42.678;23.364;2022-09-03T04:01:03;94870.94;;;15.46;100.00
6134;BME280;3098;42.678;23.364;2022-09-03T04:03:31;94884.47;;;15.53;100.00
6134;BME280;3098;42.678;23.364;2022-09-03T04:05:58;94927.97;;;15.78;100.00
6134;BME280;3098;42.678;23.364;2022-09-03T04:08:27;94899.81;;;15.69;100.00
6134;BME280;3098;42.678;23.364;2022-09-03T04:11:00;94913.63;;;15.71;100.00
6134;BME280;3098;42.678;23.364;2022-09-03T04:13:28;94891.25;;;15.63;100.00
6134;BME280;3098;42.678;23.364;2022-09-03T04:15:59;94931.97;;;15.84;100.00
6134;BME280;3098;42.678;23.364;2022-09-03T04:18:26;94918.25;;;15.86;100.00
6134;BME280;3098;42.678;23.364;2022-09-03T04:20:58;94918.69;;;15.88;100.00
6134;BME280;3098;42.678;23.364;2022-09-03T04:23:29;94933.38;;;15.94;100.00
6134;BME280;3098;42.678;23.364;2022-09-03T04:25:56;94925.94;;;15.87;100.00
6134;BME280;3098;42.678;23.364;2022-09-03T04:28:25;94923.53;;;15.70;100.00
6134;BME280;3098;42.678;23.364;2022-09-03T04:30:52;94922.53;;;15.75;100.00
6134;BME280;3098;42.678;23.364;2022-09-03T04:33:23;94940.13;;;15.76;100.00
6134;BME280;3098;42.678;23.364;2022-09-03T04:35:50;94930.97;;;15.77;100.00
6134;BME280;3098;42.678;23.364;2022-09-03T04:38:17;94948.66;;;15.93;100.00
6134;BME280;3098;42.678;23.364;2022-09-03T04:40:50;94926.66;;;15.72;100.00
6134;BME280;3098;42.678;23.364;2022-09-03T04:43:18;94939.34;;;15.75;100.00
6134;BME280;3098;42.678;23.364;2022-09-03T04:45:46;94963.13;;;15.92;100.00
6134;BME280;3098;42.678;23.364;2022-09-03T04:48:13;94966.34;;;15.98;100.00
6134;BME280;3098;42.678;23.364;2022-09-03T04:50:40;94921.00;;;15.62;100.00
6134;BME280;3098;42.678;23.364;2022-09-03T04:53:07;94969.56;;;16.03;100.00
6134;BME280;3098;42.678;23.364;2022-09-03T04:55:35;94961.69;;;15.95;100.00
6134;BME280;3098;42.678;23.364;2022-09-03T04:58:02;94971.38;;;15.99;100.00
6134;BME280;3098;42.678;23.364;2022-09-03T05:00:32;94961.25;;;15.93;100.00
6134;BME280;3098;42.678;23.364;2022-09-03T05:03:03;94975.00;;;16.07;100.00
6134;BME280;3098;42.678;23.364;2022-09-03T05:05:30;94936.97;;;15.86;100.00
6134;BME280;3098;42.678;23.364;2022-09-03T05:07:57;94931.66;;;15.74;100.00
6134;BME280;3098;42.678;23.364;2022-09-03T05:10:26;94993.06;;;16.10;100.00
6134;BME280;3098;42.678;23.364;2022-09-03T05:12:57;94974.97;;;15.91;100.00
6134;BME280;3098;42.678;23.364;2022-09-03T05:15:24;94983.03;;;16.07;100.00
6134;BME280;3098;42.678;23.364;2022-09-03T05:17:55;94978.84;;;15.94;100.00
6134;BME280;3098;42.678;23.364;2022-09-03T05:20:23;94984.19;;;16.06;100.00
6134;BME280;3098;42.678;23.364;2022-09-03T05:22:51;94984.94;;;16.06;100.00
6134;BME280;3098;42.678;23.364;2022-09-03T05:25:18;94970.47;;;15.95;100.00
6134;BME280;3098;42.678;23.364;2022-09-03T05:27:45;94990.50;;;16.14;100.00
6134;BME280;3098;42.678;23.364;2022-09-03T05:30:13;94995.59;;;16.19;100.00
6134;BME280;3098;42.678;23.364;2022-09-03T05:32:40;94950.22;;;15.94;100.00
6134;BME280;3098;42.678;23.364;2022-09-03T05:35:08;94937.75;;;15.86;100.00
6134;BME280;3098;42.678;23.364;2022-09-03T05:37:36;94990.34;;;16.22;100.00
6134;BME280;3098;42.678;23.364;2022-09-03T05:40:05;94985.56;;;16.16;100.00
6134;BME280;3098;42.678;23.364;2022-09-03T05:42:35;95001.84;;;16.23;100.00
6134;BME280;3098;42.678;23.364;2022-09-03T05:45:04;95002.41;;;16.16;100.00
6134;BME280;3098;42.678;23.364;2022-09-03T05:47:34;94998.94;;;16.16;100.00
6134;BME280;3098;42.678;23.364;2022-09-03T05:50:02;94969.38;;;15.96;100.00
6134;BME280;3098;42.678;23.364;2022-09-03T05:52:31;95012.09;;;16.21;100.00
6134;BME280;3098;42.678;23.364;2022-09-03T05:55:00;95011.94;;;16.29;100.00
6134;BME280;3098;42.678;23.364;2022-09-03T05:57:27;95004.91;;;16.37;100.00
6134;BME280;3098;42.678;23.364;2022-09-03T05:59:54;95005.63;;;16.49;100.00
6134;BME280;3098;42.678;23.364;2022-09-03T06:02:21;94998.94;;;16.43;100.00
6134;BME280;3098;42.678;23.364;2022-09-03T06:04:48;94996.25;;;16.55;100.00
6134;BME280;3098;42.678;23.364;2022-09-03T06:07:15;95003.34;;;16.63;100.00
6134;BME280;3098;42.678;23.364;2022-09-03T06:09:42;95021.09;;;16.84;100.00
6134;BME280;3098;42.678;23.364;2022-09-03T06:12:11;95017.66;;;16.99;100.00
6134;BME280;3098;42.678;23.364;2022-09-03T06:14:38;95016.78;;;16.95;100.00
6134;BME280;3098;42.678;23.364;2022-09-03T06:17:05;95022.50;;;17.09;100.00
6134;BME280;3098;42.678;23.364;2022-09-03T06:19:35;94998.38;;;17.09;100.00
6134;BME280;3098;42.678;23.364;2022-09-03T06:22:03;94966.56;;;16.76;100.00
6134;BME280;3098;42.678;23.364;2022-09-03T06:24:30;94985.25;;;17.04;100.00
6134;BME280;3098;42.678;23.364;2022-09-03T06:26:57;95016.56;;;17.31;100.00
6134;BME280;3098;42.678;23.364;2022-09-03T06:29:26;95021.31;;;17.22;100.00
6134;BME280;3098;42.678;23.364;2022-09-03T06:31:53;94972.78;;;17.11;100.00
6134;BME280;3098;42.678;23.364;2022-09-03T06:34:21;95000.06;;;17.48;100.00
6134;BME280;3098;42.678;23.364;2022-09-03T06:36:49;94926.81;;;17.09;100.00
6134;BME280;3098;42.678;23.364;2022-09-03T06:39:17;94935.25;;;17.27;100.00
6134;BME280;3098;42.678;23.364;2022-09-03T06:41:43;95038.28;;;17.92;100.00
6134;BME280;3098;42.678;23.364;2022-09-03T06:44:16;95021.84;;;18.13;100.00
6134;BME280;3098;42.678;23.364;2022-09-03T06:46:45;95024.41;;;18.44;100.00
6134;BME280;3098;42.678;23.364;2022-09-03T06:49:13;95020.84;;;18.56;100.00
6134;BME280;3098;42.678;23.364;2022-09-03T06:51:40;95029.22;;;18.96;100.00
6134;BME280;3098;42.678;23.364;2022-09-03T06:54:10;95030.53;;;18.83;100.00
6134;BME280;3098;42.678;23.364;2022-09-03T06:56:38;95037.22;;;18.70;100.00
6134;BME280;3098;42.678;23.364;2022-09-03T06:59:07;95039.47;;;18.68;100.00
6134;BME280;3098;42.678;23.364;2022-09-03T07:01:35;95007.19;;;18.64;100.00
6134;BME280;3098;42.678;23.364;2022-09-03T07:04:07;95010.56;;;18.61;100.00
6134;BME280;3098;42.678;23.364;2022-09-03T07:06:36;95031.91;;;19.15;100.00
6134;BME280;3098;42.678;23.364;2022-09-03T07:09:05;95032.91;;;19.52;100.00
6134;BME280;3098;42.678;23.364;2022-09-03T07:11:32;95044.44;;;19.53;100.00
6134;BME280;3098;42.678;23.364;2022-09-03T07:14:01;94962.03;;;19.41;100.00
6134;BME280;3098;42.678;23.364;2022-09-03T07:16:29;95046.72;;;20.30;97.95
6134;BME280;3098;42.678;23.364;2022-09-03T07:19:01;94994.34;;;20.97;92.93
6134;BME280;3098;42.678;23.364;2022-09-03T07:21:31;95042.06;;;20.90;93.07
6134;BME280;3098;42.678;23.364;2022-09-03T07:24:01;95049.38;;;21.26;92.46
6134;BME280;3098;42.678;23.364;2022-09-03T07:26:32;95042.59;;;21.43;90.66
6134;BME280;3098;42.678;23.364;2022-09-03T07:29:03;95059.03;;;21.74;89.00
6134;BME280;3098;42.678;23.364;2022-09-03T07:31:32;95040.31;;;21.45;89.42
6134;BME280;3098;42.678;23.364;2022-09-03T07:34:02;95040.34;;;21.48;88.54
6134;BME280;3098;42.678;23.364;2022-09-03T07:36:35;94999.66;;;20.50;91.10
6134;BME280;3098;42.678;23.364;2022-09-03T07:39:04;95019.63;;;20.19;93.62
6134;BME280;3098;42.678;23.364;2022-09-03T07:41:31;95073.34;;;20.64;94.48
6134;BME280;3098;42.678;23.364;2022-09-03T07:43:59;95070.72;;;20.38;95.05
6134;BME280;3098;42.678;23.364;2022-09-03T07:46:32;95020.50;;;20.56;94.26
6134;BME280;3098;42.678;23.364;2022-09-03T07:49:00;95050.75;;;21.50;90.09
6134;BME280;3098;42.678;23.364;2022-09-03T07:51:29;95074.38;;;22.14;86.72
6134;BME280;3098;42.678;23.364;2022-09-03T07:53:59;95070.84;;;22.68;83.75
6134;BME280;3098;42.678;23.364;2022-09-03T07:56:28;95066.59;;;22.71;83.92
6134;BME280;3098;42.678;23.364;2022-09-03T07:58:56;95047.34;;;22.86;80.97
6134;BME280;3098;42.678;23.364;2022-09-03T08:01:26;95061.75;;;22.29;82.96
6134;BME280;3098;42.678;23.364;2022-09-03T08:03:56;95062.19;;;21.84;86.24
6134;BME280;3098;42.678;23.364;2022-09-03T08:06:24;95078.00;;;21.82;86.70
6134;BME280;3098;42.678;23.364;2022-09-03T08:08:54;95078.00;;;21.82;86.68
6134;BME280;3098;42.678;23.364;2022-09-03T08:11:26;95072.06;;;21.65;87.43
6134;BME280;3098;42.678;23.364;2022-09-03T08:13:54;95058.25;;;21.74;86.44
6134;BME280;3098;42.678;23.364;2022-09-03T08:16:26;95059.78;;;21.71;87.10
6134;BME280;3098;42.678;23.364;2022-09-03T08:18:54;95063.94;;;22.09;83.88
6134;BME280;3098;42.678;23.364;2022-09-03T08:21:22;95082.56;;;22.25;84.10
6134;BME280;3098;42.678;23.364;2022-09-03T08:23:51;95047.16;;;21.86;84.98
6134;BME280;3098;42.678;23.364;2022-09-03T08:26:20;95086.41;;;22.24;85.18
6134;BME280;3098;42.678;23.364;2022-09-03T08:28:51;95080.13;;;22.02;85.42
6134;BME280;3098;42.678;23.364;2022-09-03T08:31:21;95030.88;;;21.25;86.40
6134;BME280;3098;42.678;23.364;2022-09-03T08:33:50;94964.09;;;21.65;84.07
6134;BME280;3098;42.678;23.364;2022-09-03T08:36:19;95061.31;;;23.06;80.05
6134;BME280;3098;42.678;23.364;2022-09-03T08:38:51;95061.31;;;22.23;81.81
6134;BME280;3098;42.678;23.364;2022-09-03T08:41:24;95079.22;;;23.64;78.78
6134;BME280;3098;42.678;23.364;2022-09-03T08:44:08;95071.50;;;25.20;71.37
6134;BME280;3098;42.678;23.364;2022-09-03T08:46:49;95045.78;;;24.66;70.11
6134;BME280;3098;42.678;23.364;2022-09-03T08:49:22;95067.56;;;24.37;72.89
6134;BME280;3098;42.678;23.364;2022-09-03T08:51:54;95057.53;;;23.81;75.46
6134;BME280;3098;42.678;23.364;2022-09-03T08:54:25;95044.00;;;23.85;75.18
6134;BME280;3098;42.678;23.364;2022-09-03T08:56:59;95072.63;;;23.82;75.06
6134;BME280;3098;42.678;23.364;2022-09-03T08:59:29;95082.59;;;23.22;76.97
6134;BME280;3098;42.678;23.364;2022-09-03T09:02:02;95078.06;;;23.72;76.21
6134;BME280;3098;42.678;23.364;2022-09-03T09:04:41;95037.81;;;23.60;75.69
6134;BME280;3098;42.678;23.364;2022-09-03T09:07:14;95077.41;;;25.04;70.52
6134;BME280;3098;42.678;23.364;2022-09-03T09:09:46;95031.00;;;24.74;69.07
6134;BME280;3098;42.678;23.364;2022-09-03T09:12:27;95079.50;;;24.57;70.35
6134;BME280;3098;42.678;23.364;2022-09-03T09:15:05;95036.66;;;23.57;72.29
6134;BME280;3098;42.678;23.364;2022-09-03T09:17:44;95061.31;;;24.47;72.16
6134;BME280;3098;42.678;23.364;2022-09-03T09:20:22;95066.31;;;24.63;70.06
6134;BME280;3098;42.678;23.364;2022-09-03T09:22:56;95078.00;;;25.36;67.64
6134;BME280;3098;42.678;23.364;2022-09-03T09:25:26;95079.38;;;25.65;65.70
6134;BME280;3098;42.678;23.364;2022-09-03T09:27:59;95080.94;;;26.52;64.38
6134;BME280;3098;42.678;23.364;2022-09-03T09:30:30;95078.25;;;26.86;62.09
6134;BME280;3098;42.678;23.364;2022-09-03T09:32:57;95083.28;;;25.61;63.53
6134;BME280;3098;42.678;23.364;2022-09-03T09:35:25;94961.50;;;25.52;63.19
6134;BME280;3098;42.678;23.364;2022-09-03T09:37:53;95077.25;;;26.32;62.71
6134;BME280;3098;42.678;23.364;2022-09-03T09:40:28;95088.69;;;27.21;59.74
6134;BME280;3098;42.678;23.364;2022-09-03T09:43:09;95068.91;;;27.47;58.65
6134;BME280;3098;42.678;23.364;2022-09-03T09:45:39;95023.59;;;26.39;60.68
6134;BME280;3098;42.678;23.364;2022-09-03T09:48:17;94927.38;;;24.38;66.52
6134;BME280;3098;42.678;23.364;2022-09-03T09:50:46;95075.53;;;24.87;69.14
6134;BME280;3098;42.678;23.364;2022-09-03T09:53:16;95047.88;;;23.70;72.15
6134;BME280;3098;42.678;23.364;2022-09-03T09:55:53;95052.78;;;24.56;70.06
6134;BME280;3098;42.678;23.364;2022-09-03T09:58:22;95083.19;;;25.09;68.14
6134;BME280;3098;42.678;23.364;2022-09-03T10:00:59;95065.50;;;25.49;66.62
6134;BME280;3098;42.678;23.364;2022-09-03T10:03:31;95016.81;;;25.21;66.62
6134;BME280;3098;42.678;23.364;2022-09-03T10:06:05;95062.22;;;25.76;62.62
6134;BME280;3098;42.678;23.364;2022-09-03T10:08:46;95091.34;;;26.23;63.82
6134;BME280;3098;42.678;23.364;2022-09-03T10:11:14;95082.66;;;26.72;61.41
6134;BME280;3098;42.678;23.364;2022-09-03T10:13:44;95065.69;;;26.95;60.77
6134;BME280;3098;42.678;23.364;2022-09-03T10:16:21;95092.09;;;27.28;61.25
6134;BME280;3098;42.678;23.364;2022-09-03T10:18:59;95052.72;;;27.86;58.43
6134;BME280;3098;42.678;23.364;2022-09-03T10:21:29;95043.47;;;27.80;57.58
6134;BME280;3098;42.678;23.364;2022-09-03T10:24:02;95072.56;;;28.33;53.34
6134;BME280;3098;42.678;23.364;2022-09-03T10:26:40;95068.50;;;28.65;52.24
6134;BME280;3098;42.678;23.364;2022-09-03T10:29:09;95065.78;;;28.41;52.60
6134;BME280;3098;42.678;23.364;2022-09-03T10:31:47;95076.75;;;26.81;55.64
6134;BME280;3098;42.678;23.364;2022-09-03T10:34:26;95071.91;;;28.06;52.75
6134;BME280;3098;42.678;23.364;2022-09-03T10:37:10;95068.31;;;27.86;52.98
6134;BME280;3098;42.678;23.364;2022-09-03T10:39:50;95050.03;;;26.69;56.94
6134;BME280;3098;42.678;23.364;2022-09-03T10:42:34;95070.72;;;26.63;56.10
6134;BME280;3098;42.678;23.364;2022-09-03T10:45:15;95065.03;;;25.65;60.16
6134;BME280;3098;42.678;23.364;2022-09-03T10:50:46;95075.50;;;26.11;59.25
6134;BME280;3098;42.678;23.364;2022-09-03T10:53:24;95070.22;;;25.97;58.69
6134;BME280;3098;42.678;23.364;2022-09-03T10:55:59;95066.94;;;25.68;60.04
6134;BME280;3098;42.678;23.364;2022-09-03T10:58:38;94979.06;;;25.85;57.94
6134;BME280;3098;42.678;23.364;2022-09-03T11:01:14;95042.78;;;26.59;55.85
6134;BME280;3098;42.678;23.364;2022-09-03T11:03:55;95066.25;;;26.46;55.71
6134;BME280;3098;42.678;23.364;2022-09-03T11:06:28;95072.28;;;26.26;57.89
6134;BME280;3098;42.678;23.364;2022-09-03T11:08:58;95038.72;;;25.99;58.36
6134;BME280;3098;42.678;23.364;2022-09-03T11:11:31;95043.13;;;25.31;59.08
6134;BME280;3098;42.678;23.364;2022-09-03T11:14:06;95058.03;;;26.08;59.81
6134;BME280;3098;42.678;23.364;2022-09-03T11:16:37;95072.44;;;25.57;59.65
6134;BME280;3098;42.678;23.364;2022-09-03T11:19:08;95080.66;;;25.98;58.24
6134;BME280;3098;42.678;23.364;2022-09-03T11:21:38;95077.75;;;25.71;59.56
6134;BME280;3098;42.678;23.364;2022-09-03T11:24:12;95072.78;;;26.14;57.60
6134;BME280;3098;42.678;23.364;2022-09-03T11:26:42;95061.16;;;25.62;60.26
6134;BME280;3098;42.678;23.364;2022-09-03T11:29:14;95047.59;;;25.59;59.45
6134;BME280;3098;42.678;23.364;2022-09-03T11:31:50;95047.50;;;25.73;57.88
6134;BME280;3098;42.678;23.364;2022-09-03T11:34:29;95057.34;;;25.46;59.90
6134;BME280;3098;42.678;23.364;2022-09-03T11:37:16;95056.88;;;25.65;60.13
6134;BME280;3098;42.678;23.364;2022-09-03T11:39:44;95067.03;;;26.05;58.63
6134;BME280;3098;42.678;23.364;2022-09-03T11:42:26;95023.94;;;24.97;62.03
6134;BME280;3098;42.678;23.364;2022-09-03T11:44:59;95057.63;;;25.03;61.38
6134;BME280;3098;42.678;23.364;2022-09-03T11:47:40;95063.38;;;25.20;62.71
6134;BME280;3098;42.678;23.364;2022-09-03T11:50:19;95052.63;;;24.98;63.46
6134;BME280;3098;42.678;23.364;2022-09-03T11:52:47;95055.47;;;24.52;64.88
6134;BME280;3098;42.678;23.364;2022-09-03T11:55:26;95062.69;;;24.98;63.63
6134;BME280;3098;42.678;23.364;2022-09-03T11:57:56;95047.97;;;24.95;63.10
6134;BME280;3098;42.678;23.364;2022-09-03T12:00:23;95056.94;;;24.85;63.83
6134;BME280;3098;42.678;23.364;2022-09-03T12:02:54;95054.78;;;24.34;64.97
6134;BME280;3098;42.678;23.364;2022-09-03T12:05:29;95058.28;;;24.28;67.14
6134;BME280;3098;42.678;23.364;2022-09-03T12:08:30;95025.81;;;23.39;69.41
6134;BME280;3098;42.678;23.364;2022-09-03T12:11:11;95041.22;;;23.07;70.81
6134;BME280;3098;42.678;23.364;2022-09-03T12:13:51;95056.53;;;22.68;75.15
6134;BME280;3098;42.678;23.364;2022-09-03T12:16:55;95042.78;;;23.26;74.49
6134;BME280;3098;42.678;23.364;2022-09-03T12:19:31;94981.25;;;22.87;72.11
6134;BME280;3098;42.678;23.364;2022-09-03T12:22:03;95023.44;;;23.27;71.27
6134;BME280;3098;42.678;23.364;2022-09-03T12:24:30;95035.88;;;23.64;71.20
6134;BME280;3098;42.678;23.364;2022-09-03T12:27:00;95013.47;;;23.38;70.90
6134;BME280;3098;42.678;23.364;2022-09-03T12:29:29;95035.44;;;23.19;72.13
6134;BME280;3098;42.678;23.364;2022-09-03T12:32:06;94845.97;;;21.38;72.76
6134;BME280;3098;42.678;23.364;2022-09-03T12:34:33;95024.72;;;22.40;74.76
6134;BME280;3098;42.678;23.364;2022-09-03T12:37:00;95036.88;;;22.85;73.73
6134;BME280;3098;42.678;23.364;2022-09-03T12:39:29;95047.41;;;23.11;72.77
6134;BME280;3098;42.678;23.364;2022-09-03T12:42:00;95040.91;;;23.55;70.54
6134;BME280;3098;42.678;23.364;2022-09-03T12:44:30;95040.53;;;23.63;71.09
6134;BME280;3098;42.678;23.364;2022-09-03T12:47:03;94937.63;;;23.00;71.50
6134;BME280;3098;42.678;23.364;2022-09-03T12:49:37;95035.47;;;23.97;70.20
6134;BME280;3098;42.678;23.364;2022-09-03T12:52:10;95031.56;;;24.05;71.06
6134;BME280;3098;42.678;23.364;2022-09-03T12:54:47;94956.91;;;23.90;69.82
6134;BME280;3098;42.678;23.364;2022-09-03T12:57:20;95014.81;;;24.56;66.38
6134;BME280;3098;42.678;23.364;2022-09-03T12:59:51;95026.53;;;24.21;68.23
6134;BME280;3098;42.678;23.364;2022-09-03T13:02:22;95006.06;;;23.92;69.50
6134;BME280;3098;42.678;23.364;2022-09-03T13:04:52;94957.34;;;23.57;68.20
6134;BME280;3098;42.678;23.364;2022-09-03T13:07:23;94999.50;;;23.86;68.18
6134;BME280;3098;42.678;23.364;2022-09-03T13:10:00;94970.06;;;23.95;66.08
6134;BME280;3098;42.678;23.364;2022-09-03T13:12:31;95020.75;;;24.16;63.86
6134;BME280;3098;42.678;23.364;2022-09-03T13:15:06;95013.72;;;24.32;63.92
6134;BME280;3098;42.678;23.364;2022-09-03T13:17:53;94992.09;;;24.08;65.73
6134;BME280;3098;42.678;23.364;2022-09-03T13:20:32;95008.03;;;23.77;67.60
6134;BME280;3098;42.678;23.364;2022-09-03T13:23:35;95007.22;;;23.91;67.69
6134;BME280;3098;42.678;23.364;2022-09-03T13:26:17;94969.28;;;24.12;65.54
6134;BME280;3098;42.678;23.364;2022-09-03T13:28:58;94883.88;;;23.55;64.80
6134;BME280;3098;42.678;23.364;2022-09-03T13:31:35;94995.25;;;23.78;68.41
6134;BME280;3098;42.678;23.364;2022-09-03T13:34:08;94979.00;;;23.35;70.64
6134;BME280;3098;42.678;23.364;2022-09-03T13:36:42;94993.72;;;23.66;69.90
6134;BME280;3098;42.678;23.364;2022-09-03T13:39:21;94982.47;;;23.68;68.61
6134;BME280;3098;42.678;23.364;2022-09-03T13:41:56;94993.28;;;23.78;67.52